Time;durP1;ratioP1;P1;durP2;ratioP2;P2;SDS_P1;SDS_P2;PMS_P1;PMS_P2;Temp;Humidity;BMP_temperature;BMP_pressure;BME280_temperature;BME280_humidity;BME280_pressure;Samples;Min_cycle;Max_cycle;Signal;HPM_P1;HPM_P2
2021/06/25 00:00:58;;;;;;;2.22;1.80;;;18.70;92.10;;;;;;5046210;28;20031;-89
2021/06/25 00:03:26;;;;;;;3.25;1.70;;;18.80;92.00;;;;;;5056040;28;20025;-89
2021/06/25 00:05:51;;;;;;;2.50;1.73;;;18.80;91.90;;;;;;5039120;28;20039;-91
2021/06/25 00:08:17;;;;;;;3.85;1.88;;;18.70;91.90;;;;;;5036372;28;20574;-89
2021/06/25 00:10:43;;;;;;;2.35;2.00;;;18.70;91.90;;;;;;5035867;28;20591;-86
2021/06/25 00:13:08;;;;;;;2.13;1.92;;;18.70;91.80;;;;;;5036475;28;20485;-87
2021/06/25 00:15:34;;;;;;;2.53;1.95;;;18.80;91.80;;;;;;5036114;28;20470;-87
2021/06/25 00:18:01;;;;;;;4.13;2.20;;;18.70;91.80;;;;;;5036636;28;20032;-86
2021/06/25 00:20:27;;;;;;;4.05;2.08;;;18.80;91.70;;;;;;5035772;28;20024;-86
2021/06/25 00:22:54;;;;;;;3.65;1.98;;;18.80;91.80;;;;;;5036324;28;20134;-87
2021/06/25 00:25:20;;;;;;;3.15;2.00;;;18.80;91.70;;;;;;5027352;28;20031;-87
2021/06/25 00:27:45;;;;;;;3.58;1.98;;;18.80;91.70;;;;;;5016029;28;20029;-86
2021/06/25 00:30:12;;;;;;;4.53;2.38;;;18.80;91.60;;;;;;5036100;28;20382;-86
2021/06/25 00:32:37;;;;;;;2.80;2.20;;;18.80;91.60;;;;;;5053582;28;20396;-87
2021/06/25 00:35:04;;;;;;;4.60;2.22;;;18.80;91.60;;;;;;5035978;28;20124;-86
2021/06/25 00:37:30;;;;;;;2.90;2.10;;;18.80;91.60;;;;;;5067368;28;20035;-90
2021/06/25 00:39:56;;;;;;;3.45;2.22;;;18.80;91.60;;;;;;5039582;28;20474;-88
2021/06/25 00:42:22;;;;;;;2.97;2.53;;;18.80;91.50;;;;;;5051001;28;20037;-91
2021/06/25 00:44:47;;;;;;;3.60;2.25;;;18.80;91.50;;;;;;5026593;28;20111;-89
2021/06/25 00:47:13;;;;;;;4.25;2.78;;;18.70;91.60;;;;;;5016682;28;20109;-91
2021/06/25 00:49:39;;;;;;;3.30;2.53;;;18.70;91.90;;;;;;5030551;28;20025;-89
2021/06/25 00:52:06;;;;;;;4.45;3.10;;;18.60;91.80;;;;;;5033436;28;20032;-86
2021/06/25 00:54:32;;;;;;;4.55;2.90;;;18.50;91.90;;;;;;5028487;28;20035;-84
2021/06/25 00:56:58;;;;;;;4.13;2.92;;;18.50;92.00;;;;;;5061817;28;20032;-84
2021/06/25 00:59:24;;;;;;;4.97;2.65;;;18.40;92.40;;;;;;5062303;28;20028;-84
2021/06/25 01:01:50;;;;;;;4.35;2.95;;;18.40;92.50;;;;;;5079279;28;20469;-84
2021/06/25 01:04:15;;;;;;;4.88;3.35;;;18.40;92.70;;;;;;5040186;28;20025;-83
2021/06/25 01:06:42;;;;;;;4.57;3.17;;;18.50;92.70;;;;;;5041699;28;20540;-82
2021/06/25 01:09:08;;;;;;;4.53;3.35;;;18.50;92.70;;;;;;5042159;28;20032;-80
2021/06/25 01:11:36;;;;;;;3.42;2.72;;;18.40;92.60;;;;;;5041594;28;20119;-80
2021/06/25 01:14:02;;;;;;;4.90;3.67;;;18.40;92.50;;;;;;5041930;28;20029;-80
2021/06/25 01:16:30;;;;;;;4.60;3.17;;;18.50;92.50;;;;;;5035872;28;20112;-80
2021/06/25 01:18:56;;;;;;;5.20;3.30;;;18.40;92.40;;;;;;5022420;28;20033;-86
2021/06/25 01:21:22;;;;;;;4.82;3.38;;;18.40;92.60;;;;;;5022506;28;20033;-84
2021/06/25 01:23:48;;;;;;;5.03;2.90;;;18.40;92.60;;;;;;5039888;28;20037;-84
2021/06/25 01:26:14;;;;;;;3.85;3.20;;;18.40;92.60;;;;;;5029688;28;20029;-83
2021/06/25 01:28:40;;;;;;;4.07;3.13;;;18.50;92.60;;;;;;5061743;28;20066;-84
2021/06/25 01:31:06;;;;;;;3.35;2.80;;;18.40;92.70;;;;;;5039638;28;20037;-83
2021/06/25 01:33:34;;;;;;;4.32;3.30;;;18.40;92.60;;;;;;5050156;28;20028;-83
2021/06/25 01:36:00;;;;;;;4.93;2.70;;;18.40;92.50;;;;;;5050332;28;20049;-84
2021/06/25 01:38:26;;;;;;;5.43;2.58;;;18.40;92.50;;;;;;5054968;28;20114;-88
2021/06/25 01:40:52;;;;;;;3.50;2.78;;;18.40;92.40;;;;;;5059468;28;20032;-89
2021/06/25 01:43:18;;;;;;;5.35;2.80;;;18.40;92.50;;;;;;5043416;28;20033;-88
2021/06/25 01:45:44;;;;;;;3.58;2.63;;;18.40;92.70;;;;;;5041593;28;20049;-90
2021/06/25 01:48:10;;;;;;;2.92;2.50;;;18.40;92.60;;;;;;5042086;28;20029;-90
2021/06/25 01:50:42;;;;;;;3.65;2.60;;;18.40;92.60;;;;;;5042246;28;20035;-93
2021/06/25 01:53:13;;;;;;;5.25;2.60;;;18.40;92.50;;;;;;5051658;28;20021;-91
2021/06/25 01:55:41;;;;;;;4.95;2.80;;;18.40;92.60;;;;;;5039085;28;20059;-91
2021/06/25 01:58:11;;;;;;;3.72;2.78;;;18.40;92.60;;;;;;5042991;28;20036;-91
2021/06/25 02:00:40;;;;;;;3.90;2.70;;;18.40;92.70;;;;;;5037186;28;20443;-93
2021/06/25 02:03:06;;;;;;;2.92;2.55;;;18.40;92.90;;;;;;5038623;28;20033;-95
2021/06/25 02:05:31;;;;;;;3.22;2.42;;;18.40;92.70;;;;;;5054131;28;20363;-90
2021/06/25 02:07:57;;;;;;;3.25;2.60;;;18.30;92.70;;;;;;5027865;28;20059;-92
2021/06/25 02:10:23;;;;;;;3.80;2.83;;;18.40;92.70;;;;;;5036784;28;20033;-93
2021/06/25 02:12:51;;;;;;;4.22;2.20;;;18.40;92.90;;;;;;5044493;28;20040;-93
2021/06/25 02:15:17;;;;;;;4.00;2.70;;;18.30;92.70;;;;;;5044703;28;20029;-92
2021/06/25 02:17:43;;;;;;;3.97;2.70;;;18.40;92.70;;;;;;5042706;28;20031;-93
2021/06/25 02:20:12;;;;;;;3.95;2.70;;;18.40;93.00;;;;;;5042214;28;20025;-93
2021/06/25 02:22:40;;;;;;;4.90;3.05;;;18.40;92.90;;;;;;5039739;28;20035;-92
2021/06/25 02:25:11;;;;;;;3.22;2.55;;;18.40;93.00;;;;;;5039363;28;20052;-92
2021/06/25 02:27:39;;;;;;;4.15;2.92;;;18.40;93.30;;;;;;5039649;28;20043;-93
2021/06/25 02:30:07;;;;;;;5.85;3.03;;;18.40;93.40;;;;;;5041838;28;20052;-93
2021/06/25 02:32:36;;;;;;;3.53;2.58;;;18.40;93.50;;;;;;5039823;28;20074;-91
2021/06/25 02:35:07;;;;;;;4.18;3.00;;;18.40;93.50;;;;;;5039416;28;20029;-93
2021/06/25 02:37:34;;;;;;;5.32;2.75;;;18.30;93.50;;;;;;5038260;28;20116;-91
2021/06/25 02:40:00;;;;;;;5.88;2.70;;;18.30;93.60;;;;;;5038713;28;20079;-91
2021/06/25 02:42:25;;;;;;;3.72;2.78;;;18.30;93.60;;;;;;5038644;28;20025;-87
2021/06/25 02:44:51;;;;;;;4.43;3.10;;;18.20;93.80;;;;;;5045788;28;20500;-88
2021/06/25 02:47:20;;;;;;;8.93;3.95;;;18.20;93.80;;;;;;5054925;28;20025;-89
2021/06/25 02:49:47;;;;;;;6.20;3.70;;;18.00;94.20;;;;;;5054191;28;20098;-89
2021/06/25 02:52:12;;;;;;;6.45;4.28;;;18.10;94.30;;;;;;5054906;28;20037;-89
2021/06/25 02:54:38;;;;;;;6.57;4.18;;;18.10;94.40;;;;;;5054079;28;20119;-88
2021/06/25 02:57:04;;;;;;;5.90;3.63;;;18.00;94.40;;;;;;5054659;28;20037;-89
2021/06/25 02:59:33;;;;;;;7.22;4.60;;;18.00;94.40;;;;;;5054417;28;20532;-90
2021/06/25 03:02:01;;;;;;;7.20;4.60;;;18.10;94.40;;;;;;5054521;28;20463;-90
2021/06/25 03:04:27;;;;;;;7.55;4.55;;;18.10;94.30;;;;;;5054630;28;20025;-90
2021/06/25 03:06:53;;;;;;;7.55;4.88;;;18.10;94.30;;;;;;5037080;28;20488;-91
2021/06/25 03:09:18;;;;;;;6.28;4.70;;;18.10;94.30;;;;;;5034870;28;20032;-91
2021/06/25 03:11:44;;;;;;;6.93;4.03;;;18.20;94.20;;;;;;5034055;28;20532;-91
2021/06/25 03:14:10;;;;;;;6.82;4.80;;;18.20;94.20;;;;;;5034537;28;20030;-92
2021/06/25 03:16:36;;;;;;;6.95;4.68;;;18.10;94.20;;;;;;5034026;28;20060;-92
2021/06/25 03:19:02;;;;;;;8.68;4.80;;;18.10;94.10;;;;;;5017313;28;20057;-92
2021/06/25 03:21:29;;;;;;;6.68;4.70;;;18.10;93.90;;;;;;5035601;28;20104;-92
2021/06/25 03:23:54;;;;;;;7.15;4.43;;;18.10;93.90;;;;;;5035263;28;20029;-91
2021/06/25 03:26:20;;;;;;;5.95;3.95;;;18.00;94.30;;;;;;5034867;28;20052;-89
2021/06/25 03:28:47;;;;;;;9.00;4.80;;;18.10;94.20;;;;;;5033746;28;20033;-88
2021/06/25 03:31:12;;;;;;;6.25;4.15;;;18.00;94.30;;;;;;5034250;28;20029;-89
2021/06/25 03:33:38;;;;;;;9.23;4.57;;;18.10;94.40;;;;;;5035082;28;20061;-89
2021/06/25 03:36:04;;;;;;;7.70;5.28;;;18.20;94.40;;;;;;5033660;28;20026;-89
2021/06/25 03:38:31;;;;;;;9.85;5.68;;;18.20;94.70;;;;;;5021883;28;20479;-91
2021/06/25 03:40:58;;;;;;;10.32;6.32;;;18.10;94.50;;;;;;5017289;28;20072;-91
2021/06/25 03:43:24;;;;;;;10.05;6.32;;;18.10;94.50;;;;;;5017792;28;20124;-91
2021/06/25 03:45:49;;;;;;;10.02;6.57;;;18.10;94.60;;;;;;5036386;28;20065;-91
2021/06/25 03:48:15;;;;;;;10.18;6.38;;;18.10;94.60;;;;;;5037578;28;20036;-91
2021/06/25 03:50:41;;;;;;;11.63;6.40;;;18.10;94.60;;;;;;5054206;28;20052;-90
2021/06/25 03:53:07;;;;;;;9.77;6.05;;;18.10;94.60;;;;;;5036833;28;20025;-91
2021/06/25 03:55:32;;;;;;;10.75;6.30;;;18.10;94.60;;;;;;5037093;28;20036;-92
2021/06/25 03:57:58;;;;;;;11.63;6.47;;;18.10;94.60;;;;;;5054675;28;20033;-90
2021/06/25 04:00:24;;;;;;;11.95;6.70;;;18.10;94.50;;;;;;5037241;28;20021;-91
2021/06/25 04:02:50;;;;;;;10.23;6.28;;;18.00;94.50;;;;;;5037058;28;20029;-90
2021/06/25 04:05:16;;;;;;;10.98;6.05;;;18.00;94.70;;;;;;5058151;28;20024;-91
2021/06/25 04:07:42;;;;;;;13.93;7.55;;;18.00;94.70;;;;;;5056804;28;20499;-90
2021/06/25 04:10:10;;;;;;;10.63;7.18;;;18.00;94.70;;;;;;5074403;28;20020;-91
2021/06/25 04:12:37;;;;;;;12.80;7.88;;;18.00;94.80;;;;;;5056450;28;20032;-91
2021/06/25 04:15:06;;;;;;;13.10;7.68;;;18.00;94.80;;;;;;5056593;28;20039;-91
2021/06/25 04:17:32;;;;;;;14.05;7.80;;;18.00;94.90;;;;;;5056858;28;20068;-89
2021/06/25 04:19:58;;;;;;;13.15;7.70;;;18.00;94.80;;;;;;5056489;28;20024;-91
2021/06/25 04:22:24;;;;;;;12.40;7.50;;;18.00;94.70;;;;;;5056696;28;20028;-89
2021/06/25 04:24:50;;;;;;;12.38;7.30;;;18.00;94.60;;;;;;5056308;28;20488;-90
2021/06/25 04:27:16;;;;;;;13.00;7.57;;;18.00;94.60;;;;;;5074220;28;20111;-91
2021/06/25 04:29:43;;;;;;;12.20;6.80;;;18.00;94.60;;;;;;5055630;28;20086;-90
2021/06/25 04:32:09;;;;;;;11.18;6.70;;;18.00;94.70;;;;;;5056238;28;20024;-90
2021/06/25 04:34:35;;;;;;;12.73;7.35;;;18.00;94.70;;;;;;5056254;28;20025;-90
2021/06/25 04:37:00;;;;;;;13.57;7.28;;;18.00;94.80;;;;;;5056081;28;20029;-89
2021/06/25 04:39:26;;;;;;;12.20;7.53;;;18.00;94.80;;;;;;5074255;28;20497;-91
2021/06/25 04:41:51;;;;;;;12.88;7.10;;;18.10;94.70;;;;;;5055987;28;20142;-91
2021/06/25 04:44:17;;;;;;;12.30;6.72;;;18.10;94.60;;;;;;5049821;28;20084;-91
2021/06/25 04:46:43;;;;;;;12.10;6.35;;;18.10;94.60;;;;;;5036093;28;20474;-88
2021/06/25 04:49:09;;;;;;;13.90;7.47;;;18.10;94.50;;;;;;5036432;28;20446;-88
2021/06/25 04:51:35;;;;;;;10.23;6.55;;;18.00;94.70;;;;;;5036279;28;20517;-90
2021/06/25 04:54:01;;;;;;;12.23;6.70;;;18.10;94.60;;;;;;5036171;28;20056;-88
2021/06/25 04:56:26;;;;;;;12.63;6.97;;;18.10;94.60;;;;;;5036265;28;20056;-88
2021/06/25 04:58:52;;;;;;;17.60;7.90;;;18.10;94.50;;;;;;5035963;28;20033;-89
2021/06/25 05:01:18;;;;;;;11.82;7.32;;;18.10;94.50;;;;;;5046019;28;20028;-92
2021/06/25 05:03:43;;;;;;;15.82;8.00;;;18.10;94.60;;;;;;5055966;28;20024;-94
2021/06/25 05:06:09;;;;;;;11.98;7.30;;;18.10;94.50;;;;;;5045364;28;20465;-94
2021/06/25 05:08:35;;;;;;;16.98;8.02;;;18.10;94.50;;;;;;5036414;28;20021;-93
2021/06/25 05:11:01;;;;;;;15.15;8.15;;;18.10;94.50;;;;;;5039352;28;20039;-90
2021/06/25 05:13:26;;;;;;;13.50;7.63;;;18.00;94.60;;;;;;5036199;28;20120;-90
2021/06/25 05:15:52;;;;;;;13.43;7.95;;;18.10;94.60;;;;;;5035572;28;20033;-91
2021/06/25 05:18:21;;;;;;;16.88;8.98;;;18.10;94.70;;;;;;5036265;28;20056;-92
2021/06/25 05:20:48;;;;;;;16.48;8.77;;;18.00;94.80;;;;;;5053177;28;20540;-90
2021/06/25 05:23:15;;;;;;;18.27;9.32;;;18.00;94.80;;;;;;5036027;28;20025;-91
2021/06/25 05:25:41;;;;;;;18.35;8.93;;;18.10;94.70;;;;;;5040786;28;20040;-91
2021/06/25 05:28:07;;;;;;;20.45;9.73;;;18.10;94.70;;;;;;5056072;28;20029;-88
2021/06/25 05:30:34;;;;;;;20.58;10.45;;;18.10;94.70;;;;;;5051438;28;20021;-90
2021/06/25 05:33:01;;;;;;;20.50;10.45;;;18.10;94.70;;;;;;5035780;28;20131;-89
2021/06/25 05:35:31;;;;;;;19.23;10.40;;;18.10;94.70;;;;;;5038388;28;20033;-90
2021/06/25 05:38:04;;;;;;;21.77;11.70;;;18.10;94.70;;;;;;5055545;28;20039;-90
2021/06/25 05:40:30;;;;;;;20.63;11.23;;;18.10;94.80;;;;;;5052045;28;20059;-91
2021/06/25 05:42:56;;;;;;;19.58;10.35;;;18.00;94.80;;;;;;5038857;28;20052;-91
2021/06/25 05:45:22;;;;;;;22.08;10.52;;;18.00;94.90;;;;;;5025655;28;20060;-91
2021/06/25 05:47:47;;;;;;;20.50;10.75;;;18.00;94.80;;;;;;5019576;28;20417;-90
2021/06/25 05:50:15;;;;;;;20.30;10.38;;;18.00;94.90;;;;;;5021037;28;20156;-90
2021/06/25 05:52:41;;;;;;;21.33;11.25;;;18.00;94.90;;;;;;5036490;28;20033;-92
2021/06/25 05:55:08;;;;;;;26.00;11.75;;;18.10;94.80;;;;;;5037228;28;20031;-93
2021/06/25 05:57:33;;;;;;;25.45;11.23;;;18.10;94.80;;;;;;5018158;28;20033;-92
2021/06/25 05:59:59;;;;;;;23.63;11.57;;;18.10;94.80;;;;;;5018934;28;20087;-92
2021/06/25 06:02:24;;;;;;;22.73;11.80;;;18.10;94.70;;;;;;5036463;28;20375;-90
2021/06/25 06:04:50;;;;;;;25.63;12.65;;;18.10;94.70;;;;;;5019085;28;20030;-90
2021/06/25 06:07:17;;;;;;;22.67;12.75;;;18.20;94.70;;;;;;5019650;28;20087;-90
2021/06/25 06:09:42;;;;;;;23.27;11.35;;;18.20;94.60;;;;;;5019420;28;20033;-92
2021/06/25 06:12:11;;;;;;;20.95;11.52;;;18.20;94.60;;;;;;5027765;28;20033;-91
2021/06/25 06:14:37;;;;;;;20.88;11.23;;;18.30;94.60;;;;;;5036431;28;20025;-91
2021/06/25 06:17:03;;;;;;;22.67;11.10;;;18.30;94.50;;;;;;5019237;28;20048;-91
2021/06/25 06:19:38;;;;;;;22.42;11.23;;;18.30;94.30;;;;;;5019543;28;20351;-91
2021/06/25 06:33:20;;;;;;;18.67;10.27;;;18.50;94.20;;;;;;5045347;28;20490;-93
2021/06/25 06:35:46;;;;;;;20.42;9.88;;;18.50;94.00;;;;;;5026537;28;20025;-92
2021/06/25 06:38:12;;;;;;;17.33;9.45;;;18.50;94.10;;;;;;5027629;28;20473;-93
2021/06/25 06:40:38;;;;;;;17.90;9.55;;;18.50;94.00;;;;;;5024173;28;20171;-91
2021/06/25 06:43:03;;;;;;;15.80;8.50;;;18.40;94.10;;;;;;5018818;28;20558;-93
2021/06/25 06:45:29;;;;;;;15.57;9.07;;;18.50;94.10;;;;;;5033437;28;20068;-92
2021/06/25 06:47:58;;;;;;;13.93;8.30;;;18.50;93.90;;;;;;5054176;28;20425;-92
2021/06/25 06:50:26;;;;;;;12.50;7.85;;;18.40;93.80;;;;;;5048218;28;20021;-90
2021/06/25 06:52:52;;;;;;;16.27;8.85;;;18.50;93.80;;;;;;5034182;28;20036;-90
2021/06/25 06:55:20;;;;;;;16.00;8.32;;;18.60;93.90;;;;;;5035070;28;20108;-90
2021/06/25 06:57:47;;;;;;;14.65;7.93;;;18.70;93.80;;;;;;5018195;28;20482;-92
2021/06/25 07:00:13;;;;;;;15.02;8.10;;;18.70;93.40;;;;;;5019056;28;20034;-92
2021/06/25 07:02:41;;;;;;;19.55;8.18;;;18.80;93.10;;;;;;5041306;28;20033;-92
2021/06/25 07:05:09;;;;;;;13.27;8.20;;;18.90;93.10;;;;;;5054912;28;20091;-90
2021/06/25 07:07:34;;;;;;;16.80;7.97;;;18.90;93.10;;;;;;5048769;28;20051;-91
2021/06/25 07:10:00;;;;;;;16.08;8.10;;;18.90;93.20;;;;;;5044883;28;20021;-92
2021/06/25 07:12:26;;;;;;;14.40;8.10;;;19.00;93.00;;;;;;5044852;28;20037;-90
2021/06/25 07:14:52;;;;;;;15.25;8.50;;;19.00;93.50;;;;;;5041706;28;20031;-93
2021/06/25 07:17:17;;;;;;;16.42;7.60;;;18.90;93.10;;;;;;5043337;28;20045;-95
2021/06/25 07:19:43;;;;;;;13.73;7.53;;;18.90;93.30;;;;;;5045853;28;20031;-92
2021/06/25 07:22:09;;;;;;;15.18;7.72;;;18.80;93.30;;;;;;5036749;28;20030;-92
2021/06/25 07:24:35;;;;;;;13.50;7.00;;;18.80;93.10;;;;;;5051140;28;20025;-94
2021/06/25 07:27:01;;;;;;;8.75;5.38;;;18.80;93.20;;;;;;5048727;28;20075;-93
2021/06/25 07:29:27;;;;;;;7.97;4.45;;;18.80;93.40;;;;;;5037632;28;20029;-90
2021/06/25 07:31:52;;;;;;;9.40;5.05;;;18.80;93.30;;;;;;5054402;28;20099;-88
2021/06/25 07:34:18;;;;;;;10.80;5.45;;;18.70;93.20;;;;;;5048886;28;20022;-84
2021/06/25 07:36:44;;;;;;;8.60;5.07;;;18.60;93.30;;;;;;5041715;28;20025;-85
2021/06/25 07:39:11;;;;;;;6.82;4.47;;;18.60;93.40;;;;;;5054031;28;20124;-86
2021/06/25 07:41:37;;;;;;;6.05;3.92;;;18.60;93.40;;;;;;5053762;28;20116;-85
2021/06/25 07:44:03;;;;;;;6.80;3.67;;;18.70;93.40;;;;;;5056058;28;20084;-85
2021/06/25 07:46:31;;;;;;;8.82;4.03;;;18.70;93.20;;;;;;5057546;28;20050;-93
2021/06/25 07:48:57;;;;;;;5.38;3.47;;;18.70;93.20;;;;;;5056670;28;20017;-82
2021/06/25 07:51:23;;;;;;;6.05;3.50;;;18.60;93.10;;;;;;5056782;28;20016;-81
2021/06/25 07:53:49;;;;;;;5.28;3.50;;;18.60;93.20;;;;;;5056286;28;20025;-84
2021/06/25 07:56:14;;;;;;;5.65;3.25;;;18.60;93.30;;;;;;5056491;28;20016;-85
2021/06/25 07:58:40;;;;;;;5.68;3.58;;;18.70;93.20;;;;;;5056537;28;20032;-94
2021/06/25 08:01:06;;;;;;;6.65;3.60;;;18.70;93.30;;;;;;5037054;28;20017;-85
2021/06/25 08:03:32;;;;;;;5.75;3.60;;;18.70;93.20;;;;;;5054421;28;20025;-84
2021/06/25 08:05:58;;;;;;;8.10;3.88;;;18.80;93.10;;;;;;5055460;28;20025;-84
2021/06/25 08:08:24;;;;;;;5.45;3.40;;;18.70;92.90;;;;;;5055792;28;20029;-82
2021/06/25 08:10:51;;;;;;;5.78;3.30;;;18.70;93.10;;;;;;5038612;28;20075;-83
2021/06/25 08:13:16;;;;;;;6.85;3.75;;;18.60;93.10;;;;;;5036052;28;20040;-81
2021/06/25 08:15:48;;;;;;;8.25;3.88;;;18.50;93.20;;;;;;5035966;28;20025;-83
2021/06/25 08:18:14;;;;;;;6.65;3.92;;;18.50;93.10;;;;;;5035074;28;20124;-84
2021/06/25 08:20:40;;;;;;;5.47;3.30;;;18.40;93.20;;;;;;5053098;28;20049;-84
2021/06/25 08:23:05;;;;;;;6.65;3.30;;;18.40;93.20;;;;;;5035362;28;20093;-84
2021/06/25 08:25:31;;;;;;;6.70;3.40;;;18.40;93.40;;;;;;5036335;28;20032;-83
2021/06/25 08:27:58;;;;;;;5.68;3.03;;;18.40;93.40;;;;;;5035263;28;20025;-83
2021/06/25 08:30:25;;;;;;;6.38;3.28;;;18.50;93.50;;;;;;5036251;28;20086;-82
2021/06/25 08:32:52;;;;;;;5.30;3.13;;;18.40;93.20;;;;;;5042725;28;20016;-84
2021/06/25 08:35:18;;;;;;;5.75;3.20;;;18.30;93.20;;;;;;5065849;28;20045;-84
2021/06/25 08:37:43;;;;;;;6.43;3.70;;;18.30;93.20;;;;;;5015695;28;20029;-84
2021/06/25 08:40:09;;;;;;;7.00;3.47;;;18.30;93.20;;;;;;5031489;28;20028;-84
2021/06/25 08:42:39;;;;;;;5.75;3.47;;;18.20;93.40;;;;;;5035214;28;20037;-89
2021/06/25 08:45:09;;;;;;;5.13;3.22;;;18.20;93.60;;;;;;5035236;28;20037;-88
2021/06/25 08:47:43;;;;;;;6.43;3.15;;;18.20;93.80;;;;;;5037651;28;20033;-89
2021/06/25 08:50:11;;;;;;;7.07;3.88;;;18.30;93.80;;;;;;5055790;28;20013;-90
2021/06/25 08:52:37;;;;;;;6.15;3.60;;;18.20;93.60;;;;;;5039076;28;20027;-84
2021/06/25 08:55:04;;;;;;;6.03;3.38;;;18.20;93.90;;;;;;5035821;28;20029;-85
2021/06/25 08:57:36;;;;;;;6.53;3.90;;;18.20;94.00;;;;;;5053311;28;20089;-85
2021/06/25 09:00:25;;;;;;;7.05;4.05;;;18.20;93.90;;;;;;5034888;28;20036;-84
2021/06/25 09:02:51;;;;;;;6.90;3.88;;;18.20;94.00;;;;;;5035291;28;20074;-86
2021/06/25 09:05:25;;;;;;;6.10;4.07;;;18.20;94.10;;;;;;5038711;28;20427;-85
2021/06/25 09:07:51;;;;;;;5.82;3.85;;;18.20;93.80;;;;;;5055326;28;20032;-84
2021/06/25 09:10:30;;;;;;;7.78;3.80;;;18.20;93.80;;;;;;5055035;28;20017;-85
2021/06/25 09:13:09;;;;;;;6.22;4.18;;;18.40;93.70;;;;;;5055112;28;20035;-84
2021/06/25 09:15:36;;;;;;;8.77;4.53;;;18.40;93.50;;;;;;5055529;28;20021;-83
2021/06/25 09:18:05;;;;;;;9.05;5.00;;;18.50;93.60;;;;;;5058666;28;20037;-84
2021/06/25 09:20:43;;;;;;;9.27;5.43;;;18.60;93.50;;;;;;5059595;28;20035;-83
2021/06/25 09:23:14;;;;;;;7.13;4.78;;;18.70;93.50;;;;;;5058142;28;20020;-84
2021/06/25 09:25:57;;;;;;;12.52;5.93;;;18.80;93.10;;;;;;5058580;28;20052;-85
2021/06/25 09:28:29;;;;;;;10.70;5.68;;;18.80;93.20;;;;;;5059504;28;20074;-83
2021/06/25 09:30:55;;;;;;;8.48;5.65;;;18.90;93.30;;;;;;5059327;28;20096;-85
2021/06/25 09:33:22;;;;;;;9.23;5.55;;;19.00;92.70;;;;;;5047881;28;20029;-83
2021/06/25 09:35:53;;;;;;;9.15;5.13;;;19.10;92.60;;;;;;5046219;28;20029;-83
2021/06/25 09:38:37;;;;;;;8.60;4.75;;;19.30;92.40;;;;;;5057040;28;20029;-82
2021/06/25 09:41:19;;;;;;;6.45;4.18;;;19.40;92.30;;;;;;5038228;28;20041;-83
2021/06/25 09:44:08;;;;;;;7.88;4.78;;;19.50;92.00;;;;;;5038968;28;20131;-83
2021/06/25 09:46:36;;;;;;;6.20;3.50;;;19.60;92.10;;;;;;5039216;28;20489;-84
2021/06/25 09:49:12;;;;;;;5.70;3.35;;;19.60;91.90;;;;;;5056236;28;20025;-83
2021/06/25 09:51:40;;;;;;;6.22;3.92;;;19.60;91.50;;;;;;5039440;28;20086;-84
2021/06/25 09:54:12;;;;;;;6.70;4.18;;;19.60;91.70;;;;;;5038126;28;20025;-86
2021/06/25 10:01:54;;;;;;;7.95;4.85;;;19.90;92.10;;;;;;5056375;28;20049;-86
2021/06/25 10:04:36;;;;;;;10.35;5.80;;;19.90;91.20;;;;;;5055910;28;20067;-84
2021/06/25 10:07:24;;;;;;;10.20;6.03;;;19.90;91.30;;;;;;5056468;28;20031;-86
2021/06/25 10:09:51;;;;;;;13.75;8.00;;;19.90;91.00;;;;;;5058336;28;20109;-85
2021/06/25 10:12:20;;;;;;;13.25;7.60;;;19.70;91.10;;;;;;5058276;28;20029;-84
2021/06/25 10:14:47;;;;;;;17.15;9.43;;;19.60;91.60;;;;;;5058315;28;20032;-88
2021/06/25 10:17:14;;;;;;;14.82;9.05;;;19.50;91.30;;;;;;5058153;28;20513;-84
2021/06/25 10:19:48;;;;;;;15.85;8.55;;;19.30;91.20;;;;;;5051970;28;20029;-85
2021/06/25 10:22:17;;;;;;;13.48;7.68;;;19.30;91.80;;;;;;5038398;28;20032;-85
2021/06/25 10:24:48;;;;;;;15.88;8.80;;;19.20;92.00;;;;;;5056316;28;20021;-85
2021/06/25 10:27:16;;;;;;;14.30;7.40;;;19.20;92.10;;;;;;5037268;28;20037;-85
2021/06/25 10:29:42;;;;;;;12.77;7.28;;;19.10;92.20;;;;;;5036688;28;20366;-86
2021/06/25 10:32:09;;;;;;;11.63;7.22;;;19.20;92.10;;;;;;5063387;28;20021;-86
2021/06/25 10:34:37;;;;;;;10.25;6.20;;;19.20;92.20;;;;;;5057720;28;20048;-86
2021/06/25 10:37:05;;;;;;;13.75;7.03;;;19.10;91.90;;;;;;5039607;28;20477;-89
2021/06/25 10:39:33;;;;;;;11.45;6.50;;;19.20;91.80;;;;;;5054559;28;20031;-86
2021/06/25 10:42:03;;;;;;;11.30;6.45;;;19.20;91.70;;;;;;5043083;28;20021;-86
2021/06/25 10:44:39;;;;;;;14.57;7.32;;;19.40;91.40;;;;;;5052842;28;20053;-85
2021/06/25 10:47:22;;;;;;;11.55;7.00;;;19.60;91.20;;;;;;5047780;28;20031;-87
2021/06/25 10:50:00;;;;;;;14.25;8.27;;;19.70;90.90;;;;;;5061862;28;20513;-85
2021/06/25 10:52:27;;;;;;;16.27;9.73;;;19.60;91.00;;;;;;5046496;28;20079;-86
2021/06/25 10:55:05;;;;;;;19.23;10.23;;;19.50;91.00;;;;;;5050220;28;20020;-88
2021/06/25 10:57:34;;;;;;;19.45;9.68;;;19.30;91.00;;;;;;5042743;28;20056;-90
2021/06/25 11:00:00;;;;;;;18.52;10.15;;;19.10;91.50;;;;;;5057619;28;20024;-87
2021/06/25 11:02:42;;;;;;;16.38;9.68;;;19.00;91.50;;;;;;5049787;28;20027;-86
2021/06/25 11:05:29;;;;;;;18.10;9.65;;;18.90;91.40;;;;;;5043884;28;20098;-85
2021/06/25 11:08:02;;;;;;;29.20;15.05;;;18.90;91.80;;;;;;5038989;28;20028;-90
2021/06/25 11:10:33;;;;;;;158.02;96.40;;;18.80;91.40;;;;;;5041878;28;20037;-87
2021/06/25 11:13:13;;;;;;;22.65;13.15;;;18.80;91.70;;;;;;5057473;28;20078;-85
2021/06/25 11:15:41;;;;;;;17.23;11.18;;;18.80;91.60;;;;;;5054490;28;20082;-83
2021/06/25 11:18:20;;;;;;;16.63;10.02;;;18.90;91.70;;;;;;5043053;28;20449;-83
2021/06/25 11:20:56;;;;;;;17.55;10.23;;;18.90;91.80;;;;;;5056954;28;20025;-83
2021/06/25 11:23:28;;;;;;;15.13;9.32;;;18.90;91.60;;;;;;5056714;28;20071;-84
2021/06/25 11:26:01;;;;;;;15.43;9.48;;;18.90;91.30;;;;;;5041996;28;20073;-86
2021/06/25 11:28:39;;;;;;;16.15;9.63;;;18.90;91.30;;;;;;5047024;28;20033;-85
2021/06/25 11:31:18;;;;;;;17.98;10.65;;;18.90;91.50;;;;;;5050740;28;20050;-85
2021/06/25 11:33:47;;;;;;;16.63;9.73;;;18.80;91.40;;;;;;5046658;28;20511;-84
2021/06/25 11:36:13;;;;;;;17.95;10.43;;;18.70;91.70;;;;;;5034989;28;20121;-85
2021/06/25 11:39:12;;;;;;;14.45;9.65;;;18.70;91.50;;;;;;5046885;28;20119;-85
2021/06/25 11:41:51;;;;;;;17.00;9.85;;;18.70;91.60;;;;;;5015385;28;20119;-83
2021/06/25 11:44:19;;;;;;;18.80;10.73;;;18.70;91.60;;;;;;5047983;28;20081;-84
2021/06/25 11:47:12;;;;;;;21.88;10.90;;;18.70;91.70;;;;;;5048365;28;20468;-94
2021/06/25 11:49:48;;;;;;;18.20;11.02;;;18.70;91.80;;;;;;5046496;28;20021;-85
2021/06/25 11:52:20;;;;;;;19.08;10.95;;;18.80;91.80;;;;;;5048824;28;20131;-84
2021/06/25 11:54:47;;;;;;;;;;;18.90;91.80;;;;;;5048413;28;20029;-83
2021/06/25 11:57:28;;;;;;;18.30;10.93;;;18.90;91.50;;;;;;5055849;28;19916;-84
2021/06/25 12:00:17;;;;;;;21.17;11.75;;;18.90;91.60;;;;;;5041210;28;20020;-82
2021/06/25 12:02:48;;;;;;;20.30;12.02;;;19.10;91.50;;;;;;5074082;28;20115;-82
2021/06/25 12:05:20;;;;;;;20.27;11.60;;;19.10;90.60;;;;;;5047123;28;20064;-85
2021/06/25 12:07:58;;;;;;;19.98;11.57;;;19.30;90.60;;;;;;5057605;28;20033;-85
2021/06/25 12:10:24;;;;;;;19.75;11.93;;;19.50;90.20;;;;;;5056226;28;20087;-85
2021/06/25 12:12:56;;;;;;;20.60;11.80;;;19.60;88.90;;;;;;5055846;28;20029;-86
2021/06/25 12:15:21;;;;;;;23.08;12.68;;;19.80;88.40;;;;;;5038860;28;20029;-86
2021/06/25 12:17:49;;;;;;;21.95;12.60;;;20.00;87.20;;;;;;5036074;28;20041;-86
2021/06/25 12:20:23;;;;;;;20.98;11.60;;;20.10;86.30;;;;;;5042857;28;20098;-86
2021/06/25 12:22:55;;;;;;;20.83;12.50;;;20.30;85.20;;;;;;5048842;28;20039;-86
2021/06/25 12:25:46;;;;;;;19.35;11.65;;;20.30;84.00;;;;;;5055804;28;20029;-86
2021/06/25 12:28:21;;;;;;;21.67;12.25;;;20.50;84.30;;;;;;5035978;28;20060;-83
2021/06/25 12:30:48;;;;;;;19.15;10.20;;;20.60;84.30;;;;;;5046057;28;20031;-84
2021/06/25 12:33:15;;;;;;;19.52;10.02;;;20.60;81.80;;;;;;5055478;28;20046;-82
2021/06/25 12:35:45;;;;;;;14.98;9.57;;;20.90;82.70;;;;;;5036182;28;20088;-83
2021/06/25 12:38:16;;;;;;;14.93;9.85;;;21.30;82.20;;;;;;5042254;28;20024;-84
2021/06/25 12:40:55;;;;;;;17.67;10.73;;;21.60;80.70;;;;;;5043810;28;20032;-84
2021/06/25 12:43:26;;;;;;;18.92;10.38;;;22.00;79.10;;;;;;5035061;28;20437;-86
2021/06/25 12:46:04;;;;;;;16.95;9.70;;;22.20;77.70;;;;;;5044249;28;20049;-86
2021/06/25 12:48:32;;;;;;;20.67;11.00;;;22.20;75.30;;;;;;5046549;28;20056;-86
2021/06/25 12:51:16;;;;;;;17.85;10.70;;;22.30;76.30;;;;;;5051921;28;20025;-91
2021/06/25 12:53:46;;;;;;;18.42;11.57;;;22.40;75.70;;;;;;5047672;28;20527;-88
2021/06/25 12:56:18;;;;;;;18.80;12.13;;;22.60;73.80;;;;;;5073385;28;20070;-87
2021/06/25 12:59:10;;;;;;;19.58;11.52;;;22.70;74.50;;;;;;5056866;28;20036;-89
2021/06/25 13:01:39;;;;;;;;;;;22.80;72.20;;;;;;5036612;28;20025;-89
2021/06/25 13:04:25;;;;;;;21.90;12.45;;;22.60;73.00;;;;;;5049378;28;19905;-84